sensor_id;sensor_type;location;lat;lon;timestamp;P1;durP1;ratioP1;P2;durP2;ratioP2
67272;SDS011;54190;49.770;9.250;2022-08-21T00:00:50;9.37;;;6.50;;
67272;SDS011;54190;49.770;9.250;2022-08-21T00:03:16;11.60;;;7.40;;
67272;SDS011;54190;49.770;9.250;2022-08-21T00:05:49;8.33;;;7.23;;
67272;SDS011;54190;49.770;9.250;2022-08-21T00:08:17;13.70;;;8.97;;
67272;SDS011;54190;49.770;9.250;2022-08-21T00:10:44;8.20;;;7.27;;
67272;SDS011;54190;49.770;9.250;2022-08-21T00:13:10;10.17;;;7.40;;
67272;SDS011;54190;49.770;9.250;2022-08-21T00:15:37;12.07;;;8.33;;
67272;SDS011;54190;49.770;9.250;2022-08-21T00:18:05;10.07;;;8.27;;
67272;SDS011;54190;49.770;9.250;2022-08-21T00:20:31;11.27;;;7.50;;
67272;SDS011;54190;49.770;9.250;2022-08-21T00:22:58;11.53;;;7.80;;
67272;SDS011;54190;49.770;9.250;2022-08-21T00:25:24;13.40;;;7.63;;
67272;SDS011;54190;49.770;9.250;2022-08-21T00:27:50;10.90;;;7.47;;
67272;SDS011;54190;49.770;9.250;2022-08-21T00:30:18;9.53;;;8.13;;
67272;SDS011;54190;49.770;9.250;2022-08-21T00:32:45;9.90;;;7.87;;
67272;SDS011;54190;49.770;9.250;2022-08-21T00:35:13;9.80;;;7.60;;
67272;SDS011;54190;49.770;9.250;2022-08-21T00:37:41;9.40;;;7.60;;
67272;SDS011;54190;49.770;9.250;2022-08-21T00:40:09;9.20;;;7.40;;
67272;SDS011;54190;49.770;9.250;2022-08-21T00:42:38;9.97;;;7.30;;
67272;SDS011;54190;49.770;9.250;2022-08-21T00:45:04;9.40;;;7.23;;
67272;SDS011;54190;49.770;9.250;2022-08-21T00:47:31;11.07;;;7.47;;
67272;SDS011;54190;49.770;9.250;2022-08-21T00:49:57;10.33;;;7.10;;
67272;SDS011;54190;49.770;9.250;2022-08-21T00:52:25;10.43;;;8.53;;
67272;SDS011;54190;49.770;9.250;2022-08-21T00:54:55;9.33;;;7.30;;
67272;SDS011;54190;49.770;9.250;2022-08-21T00:57:28;12.07;;;7.40;;
67272;SDS011;54190;49.770;9.250;2022-08-21T00:59:58;9.77;;;7.70;;
67272;SDS011;54190;49.770;9.250;2022-08-21T01:02:25;8.40;;;7.47;;
67272;SDS011;54190;49.770;9.250;2022-08-21T01:04:51;9.87;;;8.00;;
67272;SDS011;54190;49.770;9.250;2022-08-21T01:07:17;9.33;;;7.20;;
67272;SDS011;54190;49.770;9.250;2022-08-21T01:09:43;13.03;;;8.10;;
67272;SDS011;54190;49.770;9.250;2022-08-21T01:12:10;13.40;;;7.97;;
67272;SDS011;54190;49.770;9.250;2022-08-21T01:14:37;9.60;;;7.33;;
67272;SDS011;54190;49.770;9.250;2022-08-21T01:17:04;9.83;;;7.50;;
67272;SDS011;54190;49.770;9.250;2022-08-21T01:19:30;10.37;;;7.63;;
67272;SDS011;54190;49.770;9.250;2022-08-21T01:21:56;8.63;;;7.57;;
67272;SDS011;54190;49.770;9.250;2022-08-21T01:24:22;11.30;;;7.90;;
67272;SDS011;54190;49.770;9.250;2022-08-21T01:26:48;10.03;;;8.00;;
67272;SDS011;54190;49.770;9.250;2022-08-21T01:29:36;9.90;;;7.57;;
67272;SDS011;54190;49.770;9.250;2022-08-21T01:32:09;8.63;;;7.70;;
67272;SDS011;54190;49.770;9.250;2022-08-21T01:34:40;8.33;;;7.40;;
67272;SDS011;54190;49.770;9.250;2022-08-21T01:37:09;10.53;;;7.07;;
67272;SDS011;54190;49.770;9.250;2022-08-21T01:39:36;10.90;;;7.53;;
67272;SDS011;54190;49.770;9.250;2022-08-21T01:42:02;8.37;;;7.30;;
67272;SDS011;54190;49.770;9.250;2022-08-21T01:44:29;8.40;;;7.23;;
67272;SDS011;54190;49.770;9.250;2022-08-21T01:46:55;11.53;;;8.00;;
67272;SDS011;54190;49.770;9.250;2022-08-21T01:49:23;12.67;;;8.20;;
67272;SDS011;54190;49.770;9.250;2022-08-21T01:51:49;13.13;;;7.90;;
67272;SDS011;54190;49.770;9.250;2022-08-21T01:54:15;9.00;;;7.57;;
67272;SDS011;54190;49.770;9.250;2022-08-21T01:56:41;9.00;;;7.20;;
67272;SDS011;54190;49.770;9.250;2022-08-21T01:59:10;9.90;;;7.67;;
67272;SDS011;54190;49.770;9.250;2022-08-21T02:01:37;11.70;;;7.87;;
67272;SDS011;54190;49.770;9.250;2022-08-21T02:04:04;9.43;;;7.70;;
67272;SDS011;54190;49.770;9.250;2022-08-21T02:06:32;10.20;;;7.70;;
67272;SDS011;54190;49.770;9.250;2022-08-21T02:08:58;9.20;;;7.13;;
67272;SDS011;54190;49.770;9.250;2022-08-21T02:11:24;10.60;;;7.40;;
67272;SDS011;54190;49.770;9.250;2022-08-21T02:13:50;12.40;;;7.93;;
67272;SDS011;54190;49.770;9.250;2022-08-21T02:16:15;9.50;;;7.60;;
67272;SDS011;54190;49.770;9.250;2022-08-21T02:18:41;8.43;;;7.30;;
67272;SDS011;54190;49.770;9.250;2022-08-21T02:21:07;11.43;;;8.00;;
67272;SDS011;54190;49.770;9.250;2022-08-21T02:23:33;9.20;;;7.70;;
67272;SDS011;54190;49.770;9.250;2022-08-21T02:25:59;11.00;;;7.83;;
67272;SDS011;54190;49.770;9.250;2022-08-21T02:28:27;9.97;;;7.77;;
67272;SDS011;54190;49.770;9.250;2022-08-21T02:30:53;10.77;;;8.10;;
67272;SDS011;54190;49.770;9.250;2022-08-21T02:33:20;7.53;;;6.37;;
67272;SDS011;54190;49.770;9.250;2022-08-21T02:35:46;11.03;;;7.70;;
67272;SDS011;54190;49.770;9.250;2022-08-21T02:38:17;11.03;;;7.93;;
67272;SDS011;54190;49.770;9.250;2022-08-21T02:40:45;8.60;;;7.10;;
67272;SDS011;54190;49.770;9.250;2022-08-21T02:43:13;9.80;;;7.33;;
67272;SDS011;54190;49.770;9.250;2022-08-21T02:45:40;10.30;;;7.77;;
67272;SDS011;54190;49.770;9.250;2022-08-21T02:48:08;8.93;;;7.23;;
67272;SDS011;54190;49.770;9.250;2022-08-21T02:50:37;9.57;;;8.40;;
67272;SDS011;54190;49.770;9.250;2022-08-21T02:53:10;11.30;;;7.43;;
67272;SDS011;54190;49.770;9.250;2022-08-21T02:55:39;10.33;;;7.13;;
67272;SDS011;54190;49.770;9.250;2022-08-21T02:58:06;11.73;;;7.30;;
67272;SDS011;54190;49.770;9.250;2022-08-21T03:00:33;8.97;;;7.27;;
67272;SDS011;54190;49.770;9.250;2022-08-21T03:02:59;10.33;;;7.53;;
67272;SDS011;54190;49.770;9.250;2022-08-21T03:05:27;11.07;;;7.73;;
67272;SDS011;54190;49.770;9.250;2022-08-21T03:07:56;11.20;;;8.07;;
67272;SDS011;54190;49.770;9.250;2022-08-21T03:10:23;13.37;;;8.10;;
67272;SDS011;54190;49.770;9.250;2022-08-21T03:12:50;16.70;;;7.80;;
67272;SDS011;54190;49.770;9.250;2022-08-21T03:15:17;10.03;;;7.90;;
67272;SDS011;54190;49.770;9.250;2022-08-21T03:17:46;11.67;;;8.30;;
67272;SDS011;54190;49.770;9.250;2022-08-21T03:20:12;10.60;;;8.03;;
67272;SDS011;54190;49.770;9.250;2022-08-21T03:22:40;10.63;;;8.43;;
67272;SDS011;54190;49.770;9.250;2022-08-21T03:25:06;10.07;;;8.43;;
67272;SDS011;54190;49.770;9.250;2022-08-21T03:27:33;13.10;;;8.57;;
67272;SDS011;54190;49.770;9.250;2022-08-21T03:30:00;9.93;;;8.40;;
67272;SDS011;54190;49.770;9.250;2022-08-21T03:32:27;9.87;;;8.20;;
67272;SDS011;54190;49.770;9.250;2022-08-21T03:34:54;10.57;;;8.30;;
67272;SDS011;54190;49.770;9.250;2022-08-21T03:37:19;11.77;;;8.23;;
67272;SDS011;54190;49.770;9.250;2022-08-21T03:39:45;10.83;;;8.23;;
67272;SDS011;54190;49.770;9.250;2022-08-21T03:42:11;10.70;;;7.50;;
67272;SDS011;54190;49.770;9.250;2022-08-21T03:44:37;9.37;;;7.60;;
67272;SDS011;54190;49.770;9.250;2022-08-21T03:47:05;9.43;;;7.50;;
67272;SDS011;54190;49.770;9.250;2022-08-21T03:49:31;13.40;;;8.00;;
67272;SDS011;54190;49.770;9.250;2022-08-21T03:51:57;10.53;;;7.90;;
67272;SDS011;54190;49.770;9.250;2022-08-21T03:54:22;10.97;;;8.60;;
67272;SDS011;54190;49.770;9.250;2022-08-21T03:56:48;10.63;;;7.77;;
67272;SDS011;54190;49.770;9.250;2022-08-21T03:59:14;10.40;;;7.80;;
67272;SDS011;54190;49.770;9.250;2022-08-21T04:01:50;12.20;;;8.33;;
67272;SDS011;54190;49.770;9.250;2022-08-21T04:04:20;10.00;;;7.90;;
67272;SDS011;54190;49.770;9.250;2022-08-21T04:06:46;9.27;;;8.13;;
67272;SDS011;54190;49.770;9.250;2022-08-21T04:09:12;11.30;;;8.60;;
67272;SDS011;54190;49.770;9.250;2022-08-21T04:11:38;13.23;;;8.47;;
67272;SDS011;54190;49.770;9.250;2022-08-21T04:14:03;10.93;;;8.47;;
67272;SDS011;54190;49.770;9.250;2022-08-21T04:16:29;11.43;;;8.50;;
67272;SDS011;54190;49.770;9.250;2022-08-21T04:18:56;11.73;;;8.63;;
67272;SDS011;54190;49.770;9.250;2022-08-21T04:21:21;11.10;;;8.10;;
67272;SDS011;54190;49.770;9.250;2022-08-21T04:23:48;11.10;;;7.53;;
67272;SDS011;54190;49.770;9.250;2022-08-21T04:26:14;10.43;;;8.33;;
67272;SDS011;54190;49.770;9.250;2022-08-21T04:28:40;10.07;;;8.30;;
67272;SDS011;54190;49.770;9.250;2022-08-21T04:31:06;10.83;;;8.40;;
67272;SDS011;54190;49.770;9.250;2022-08-21T04:33:33;12.30;;;8.13;;
67272;SDS011;54190;49.770;9.250;2022-08-21T04:35:59;11.33;;;8.20;;
67272;SDS011;54190;49.770;9.250;2022-08-21T04:38:26;11.53;;;7.73;;
67272;SDS011;54190;49.770;9.250;2022-08-21T04:40:52;10.70;;;8.07;;
67272;SDS011;54190;49.770;9.250;2022-08-21T04:43:18;11.20;;;9.00;;
67272;SDS011;54190;49.770;9.250;2022-08-21T04:45:47;11.70;;;8.93;;
67272;SDS011;54190;49.770;9.250;2022-08-21T04:48:15;13.07;;;8.70;;
67272;SDS011;54190;49.770;9.250;2022-08-21T04:50:47;11.23;;;9.13;;
67272;SDS011;54190;49.770;9.250;2022-08-21T04:53:26;12.80;;;8.57;;
67272;SDS011;54190;49.770;9.250;2022-08-21T04:56:04;13.07;;;8.23;;
67272;SDS011;54190;49.770;9.250;2022-08-21T04:58:33;11.00;;;8.30;;
67272;SDS011;54190;49.770;9.250;2022-08-21T05:01:02;11.17;;;7.70;;
67272;SDS011;54190;49.770;9.250;2022-08-21T05:03:29;11.27;;;8.50;;
67272;SDS011;54190;49.770;9.250;2022-08-21T05:05:58;12.23;;;9.23;;
67272;SDS011;54190;49.770;9.250;2022-08-21T05:08:25;10.37;;;9.17;;
67272;SDS011;54190;49.770;9.250;2022-08-21T05:10:52;11.03;;;8.97;;
67272;SDS011;54190;49.770;9.250;2022-08-21T05:13:18;10.67;;;8.50;;
67272;SDS011;54190;49.770;9.250;2022-08-21T05:15:45;9.90;;;8.23;;
67272;SDS011;54190;49.770;9.250;2022-08-21T05:18:11;12.00;;;8.77;;
67272;SDS011;54190;49.770;9.250;2022-08-21T05:20:37;11.87;;;8.40;;
67272;SDS011;54190;49.770;9.250;2022-08-21T05:23:07;15.30;;;9.30;;
67272;SDS011;54190;49.770;9.250;2022-08-21T05:25:34;10.73;;;8.80;;
67272;SDS011;54190;49.770;9.250;2022-08-21T05:27:59;11.67;;;8.87;;
67272;SDS011;54190;49.770;9.250;2022-08-21T05:30:25;13.73;;;8.77;;
67272;SDS011;54190;49.770;9.250;2022-08-21T05:32:55;14.73;;;9.00;;
67272;SDS011;54190;49.770;9.250;2022-08-21T05:35:23;14.70;;;10.23;;
67272;SDS011;54190;49.770;9.250;2022-08-21T05:37:49;11.80;;;9.00;;
67272;SDS011;54190;49.770;9.250;2022-08-21T05:40:14;13.23;;;9.97;;
67272;SDS011;54190;49.770;9.250;2022-08-21T05:42:40;13.30;;;9.43;;
67272;SDS011;54190;49.770;9.250;2022-08-21T05:45:06;11.70;;;8.60;;
67272;SDS011;54190;49.770;9.250;2022-08-21T05:47:32;10.87;;;8.83;;
67272;SDS011;54190;49.770;9.250;2022-08-21T05:49:57;12.30;;;9.60;;
67272;SDS011;54190;49.770;9.250;2022-08-21T05:52:23;12.83;;;9.20;;
67272;SDS011;54190;49.770;9.250;2022-08-21T05:54:49;16.00;;;9.97;;
67272;SDS011;54190;49.770;9.250;2022-08-21T05:57:15;14.13;;;9.70;;
67272;SDS011;54190;49.770;9.250;2022-08-21T05:59:41;11.90;;;9.00;;
67272;SDS011;54190;49.770;9.250;2022-08-21T06:02:07;12.90;;;9.30;;
67272;SDS011;54190;49.770;9.250;2022-08-21T06:04:37;13.17;;;9.17;;
67272;SDS011;54190;49.770;9.250;2022-08-21T06:07:03;12.40;;;9.47;;
67272;SDS011;54190;49.770;9.250;2022-08-21T06:09:30;12.93;;;9.80;;
67272;SDS011;54190;49.770;9.250;2022-08-21T06:11:56;13.70;;;9.67;;
67272;SDS011;54190;49.770;9.250;2022-08-21T06:14:22;13.60;;;10.40;;
67272;SDS011;54190;49.770;9.250;2022-08-21T06:16:47;11.00;;;9.50;;
67272;SDS011;54190;49.770;9.250;2022-08-21T06:19:13;12.23;;;9.93;;
67272;SDS011;54190;49.770;9.250;2022-08-21T06:21:39;13.50;;;10.40;;
67272;SDS011;54190;49.770;9.250;2022-08-21T06:24:05;18.80;;;10.90;;
67272;SDS011;54190;49.770;9.250;2022-08-21T06:26:32;16.00;;;10.40;;
67272;SDS011;54190;49.770;9.250;2022-08-21T06:28:58;15.37;;;10.23;;
67272;SDS011;54190;49.770;9.250;2022-08-21T06:31:25;12.57;;;9.63;;
67272;SDS011;54190;49.770;9.250;2022-08-21T06:33:52;11.70;;;9.87;;
67272;SDS011;54190;49.770;9.250;2022-08-21T06:36:19;13.70;;;9.80;;
67272;SDS011;54190;49.770;9.250;2022-08-21T06:38:46;12.27;;;10.37;;
67272;SDS011;54190;49.770;9.250;2022-08-21T06:41:12;16.30;;;10.70;;
67272;SDS011;54190;49.770;9.250;2022-08-21T06:43:37;11.57;;;8.30;;
67272;SDS011;54190;49.770;9.250;2022-08-21T06:46:03;12.67;;;9.20;;
67272;SDS011;54190;49.770;9.250;2022-08-21T06:48:29;14.17;;;9.70;;
67272;SDS011;54190;49.770;9.250;2022-08-21T06:50:57;13.20;;;9.93;;
67272;SDS011;54190;49.770;9.250;2022-08-21T06:53:24;12.57;;;9.60;;
67272;SDS011;54190;49.770;9.250;2022-08-21T06:55:50;15.27;;;10.60;;
67272;SDS011;54190;49.770;9.250;2022-08-21T06:58:15;13.53;;;10.57;;
67272;SDS011;54190;49.770;9.250;2022-08-21T07:00:43;13.20;;;10.13;;
67272;SDS011;54190;49.770;9.250;2022-08-21T07:03:22;14.33;;;10.67;;
67272;SDS011;54190;49.770;9.250;2022-08-21T07:05:50;15.30;;;10.63;;
67272;SDS011;54190;49.770;9.250;2022-08-21T07:08:16;18.47;;;10.83;;
67272;SDS011;54190;49.770;9.250;2022-08-21T07:10:42;14.80;;;10.83;;
67272;SDS011;54190;49.770;9.250;2022-08-21T07:13:08;15.67;;;11.20;;
67272;SDS011;54190;49.770;9.250;2022-08-21T07:15:33;13.67;;;9.87;;
67272;SDS011;54190;49.770;9.250;2022-08-21T07:17:59;14.17;;;11.10;;
67272;SDS011;54190;49.770;9.250;2022-08-21T07:20:29;14.27;;;10.97;;
67272;SDS011;54190;49.770;9.250;2022-08-21T07:22:56;18.53;;;11.50;;
67272;SDS011;54190;49.770;9.250;2022-08-21T07:25:24;13.20;;;9.90;;
67272;SDS011;54190;49.770;9.250;2022-08-21T07:27:49;15.77;;;10.40;;
67272;SDS011;54190;49.770;9.250;2022-08-21T07:30:15;11.87;;;10.57;;
67272;SDS011;54190;49.770;9.250;2022-08-21T07:32:41;15.63;;;11.40;;
67272;SDS011;54190;49.770;9.250;2022-08-21T07:35:06;13.10;;;10.17;;
67272;SDS011;54190;49.770;9.250;2022-08-21T07:37:32;14.80;;;10.43;;
67272;SDS011;54190;49.770;9.250;2022-08-21T07:39:58;13.63;;;10.33;;
67272;SDS011;54190;49.770;9.250;2022-08-21T07:42:24;13.57;;;10.30;;
67272;SDS011;54190;49.770;9.250;2022-08-21T07:44:50;16.50;;;11.70;;
67272;SDS011;54190;49.770;9.250;2022-08-21T07:47:15;16.47;;;11.37;;
67272;SDS011;54190;49.770;9.250;2022-08-21T07:49:41;15.53;;;10.80;;
67272;SDS011;54190;49.770;9.250;2022-08-21T07:52:07;13.00;;;10.43;;
67272;SDS011;54190;49.770;9.250;2022-08-21T07:54:33;23.60;;;11.37;;
67272;SDS011;54190;49.770;9.250;2022-08-21T07:56:58;19.97;;;12.07;;
67272;SDS011;54190;49.770;9.250;2022-08-21T07:59:24;14.67;;;11.50;;
67272;SDS011;54190;49.770;9.250;2022-08-21T08:01:50;17.20;;;11.30;;
67272;SDS011;54190;49.770;9.250;2022-08-21T08:04:15;15.10;;;11.57;;
67272;SDS011;54190;49.770;9.250;2022-08-21T08:06:41;14.00;;;11.50;;
67272;SDS011;54190;49.770;9.250;2022-08-21T08:09:07;15.40;;;11.67;;
67272;SDS011;54190;49.770;9.250;2022-08-21T08:11:33;14.50;;;10.87;;
67272;SDS011;54190;49.770;9.250;2022-08-21T08:14:08;15.93;;;10.90;;
67272;SDS011;54190;49.770;9.250;2022-08-21T08:16:33;15.37;;;10.47;;
67272;SDS011;54190;49.770;9.250;2022-08-21T08:18:59;14.17;;;10.40;;
67272;SDS011;54190;49.770;9.250;2022-08-21T08:21:25;15.10;;;11.00;;
67272;SDS011;54190;49.770;9.250;2022-08-21T08:23:51;16.23;;;10.93;;
67272;SDS011;54190;49.770;9.250;2022-08-21T08:26:17;15.27;;;11.13;;
67272;SDS011;54190;49.770;9.250;2022-08-21T08:28:43;12.40;;;10.23;;
67272;SDS011;54190;49.770;9.250;2022-08-21T08:31:09;15.00;;;11.40;;
67272;SDS011;54190;49.770;9.250;2022-08-21T08:33:35;13.77;;;10.43;;
67272;SDS011;54190;49.770;9.250;2022-08-21T08:36:01;13.80;;;10.10;;
67272;SDS011;54190;49.770;9.250;2022-08-21T08:38:27;14.07;;;9.23;;
67272;SDS011;54190;49.770;9.250;2022-08-21T08:43:43;11.67;;;9.80;;
67272;SDS011;54190;49.770;9.250;2022-08-21T08:46:17;13.80;;;10.67;;
67272;SDS011;54190;49.770;9.250;2022-08-21T08:48:47;14.60;;;10.47;;
67272;SDS011;54190;49.770;9.250;2022-08-21T08:51:25;14.10;;;9.67;;
67272;SDS011;54190;49.770;9.250;2022-08-21T08:54:02;11.43;;;9.33;;
67272;SDS011;54190;49.770;9.250;2022-08-21T08:56:32;11.30;;;8.37;;
67272;SDS011;54190;49.770;9.250;2022-08-21T08:59:07;15.37;;;8.80;;
67272;SDS011;54190;49.770;9.250;2022-08-21T09:01:38;9.20;;;7.60;;
67272;SDS011;54190;49.770;9.250;2022-08-21T09:04:05;11.93;;;8.57;;
67272;SDS011;54190;49.770;9.250;2022-08-21T09:12:30;13.53;;;8.40;;
67272;SDS011;54190;49.770;9.250;2022-08-21T09:17:55;9.30;;;7.50;;
67272;SDS011;54190;49.770;9.250;2022-08-21T09:20:43;12.57;;;8.20;;
67272;SDS011;54190;49.770;9.250;2022-08-21T09:26:08;8.37;;;7.20;;
67272;SDS011;54190;49.770;9.250;2022-08-21T09:28:37;10.50;;;7.20;;
67272;SDS011;54190;49.770;9.250;2022-08-21T09:31:06;9.67;;;6.67;;
67272;SDS011;54190;49.770;9.250;2022-08-21T09:33:33;9.87;;;7.00;;
67272;SDS011;54190;49.770;9.250;2022-08-21T09:35:59;9.70;;;7.47;;
67272;SDS011;54190;49.770;9.250;2022-08-21T09:38:28;9.93;;;6.83;;
67272;SDS011;54190;49.770;9.250;2022-08-21T09:41:04;10.50;;;6.80;;
67272;SDS011;54190;49.770;9.250;2022-08-21T09:43:35;8.97;;;6.10;;
67272;SDS011;54190;49.770;9.250;2022-08-21T09:46:07;8.60;;;6.70;;
67272;SDS011;54190;49.770;9.250;2022-08-21T09:48:57;7.50;;;5.10;;
67272;SDS011;54190;49.770;9.250;2022-08-21T09:51:24;10.57;;;5.33;;
67272;SDS011;54190;49.770;9.250;2022-08-21T09:53:54;7.20;;;5.43;;
67272;SDS011;54190;49.770;9.250;2022-08-21T10:00:16;8.53;;;4.93;;
67272;SDS011;54190;49.770;9.250;2022-08-21T10:02:48;8.20;;;5.23;;
67272;SDS011;54190;49.770;9.250;2022-08-21T10:05:22;9.47;;;5.10;;
67272;SDS011;54190;49.770;9.250;2022-08-21T10:07:49;8.30;;;5.47;;
67272;SDS011;54190;49.770;9.250;2022-08-21T10:10:20;8.17;;;5.53;;
67272;SDS011;54190;49.770;9.250;2022-08-21T10:21:15;7.50;;;4.43;;
67272;SDS011;54190;49.770;9.250;2022-08-21T10:26:54;8.07;;;4.90;;
67272;SDS011;54190;49.770;9.250;2022-08-21T10:32:08;6.80;;;5.20;;
67272;SDS011;54190;49.770;9.250;2022-08-21T10:35:29;7.20;;;4.80;;
67272;SDS011;54190;49.770;9.250;2022-08-21T10:38:15;6.83;;;4.97;;
67272;SDS011;54190;49.770;9.250;2022-08-21T10:43:57;6.63;;;5.50;;
67272;SDS011;54190;49.770;9.250;2022-08-21T10:49:21;10.47;;;5.60;;
67272;SDS011;54190;49.770;9.250;2022-08-21T10:55:04;6.87;;;5.40;;
67272;SDS011;54190;49.770;9.250;2022-08-21T11:00:21;8.47;;;5.20;;
67272;SDS011;54190;49.770;9.250;2022-08-21T11:02:50;8.77;;;4.70;;
67272;SDS011;54190;49.770;9.250;2022-08-21T11:05:41;6.67;;;4.40;;
67272;SDS011;54190;49.770;9.250;2022-08-21T11:10:57;8.83;;;4.67;;
67272;SDS011;54190;49.770;9.250;2022-08-21T11:13:48;9.13;;;5.00;;
67272;SDS011;54190;49.770;9.250;2022-08-21T11:24:15;5.87;;;4.10;;
67272;SDS011;54190;49.770;9.250;2022-08-21T11:26:53;8.20;;;4.70;;
67272;SDS011;54190;49.770;9.250;2022-08-21T11:39:55;5.00;;;3.73;;
67272;SDS011;54190;49.770;9.250;2022-08-21T11:42:45;4.80;;;4.13;;
67272;SDS011;54190;49.770;9.250;2022-08-21T11:51:26;6.63;;;4.33;;
67272;SDS011;54190;49.770;9.250;2022-08-21T11:56:50;8.40;;;4.10;;
67272;SDS011;54190;49.770;9.250;2022-08-21T11:59:37;6.20;;;3.77;;
67272;SDS011;54190;49.770;9.250;2022-08-21T12:02:23;5.57;;;3.67;;
67272;SDS011;54190;49.770;9.250;2022-08-21T12:04:55;5.50;;;3.80;;
67272;SDS011;54190;49.770;9.250;2022-08-21T12:07:38;7.27;;;4.40;;
67272;SDS011;54190;49.770;9.250;2022-08-21T12:10:09;5.90;;;4.10;;
67272;SDS011;54190;49.770;9.250;2022-08-21T12:12:39;5.20;;;4.13;;
67272;SDS011;54190;49.770;9.250;2022-08-21T12:17:56;6.70;;;4.10;;
67272;SDS011;54190;49.770;9.250;2022-08-21T12:25:42;9.73;;;4.30;;
67272;SDS011;54190;49.770;9.250;2022-08-21T12:28:15;6.10;;;3.63;;
67272;SDS011;54190;49.770;9.250;2022-08-21T12:30:47;5.27;;;4.20;;
67272;SDS011;54190;49.770;9.250;2022-08-21T12:33:18;7.50;;;4.23;;
67272;SDS011;54190;49.770;9.250;2022-08-21T12:35:48;6.57;;;4.17;;
67272;SDS011;54190;49.770;9.250;2022-08-21T12:38:23;4.23;;;3.80;;
67272;SDS011;54190;49.770;9.250;2022-08-21T12:40:58;5.90;;;4.10;;
67272;SDS011;54190;49.770;9.250;2022-08-21T12:43:30;9.20;;;4.23;;
67272;SDS011;54190;49.770;9.250;2022-08-21T12:46:03;5.73;;;4.07;;
67272;SDS011;54190;49.770;9.250;2022-08-21T12:48:39;5.33;;;4.17;;
67272;SDS011;54190;49.770;9.250;2022-08-21T12:51:13;4.43;;;4.03;;
67272;SDS011;54190;49.770;9.250;2022-08-21T12:53:45;6.40;;;4.30;;
67272;SDS011;54190;49.770;9.250;2022-08-21T12:56:16;6.43;;;3.93;;
67272;SDS011;54190;49.770;9.250;2022-08-21T12:58:54;6.10;;;3.87;;
67272;SDS011;54190;49.770;9.250;2022-08-21T13:01:23;6.97;;;3.83;;
67272;SDS011;54190;49.770;9.250;2022-08-21T13:03:50;6.90;;;4.20;;
67272;SDS011;54190;49.770;9.250;2022-08-21T13:06:20;7.80;;;4.13;;
67272;SDS011;54190;49.770;9.250;2022-08-21T13:08:50;4.83;;;4.07;;
67272;SDS011;54190;49.770;9.250;2022-08-21T13:11:22;6.13;;;4.50;;
67272;SDS011;54190;49.770;9.250;2022-08-21T13:13:49;5.73;;;3.93;;
67272;SDS011;54190;49.770;9.250;2022-08-21T13:16:26;5.90;;;4.00;;
67272;SDS011;54190;49.770;9.250;2022-08-21T13:21:26;6.37;;;4.23;;
67272;SDS011;54190;49.770;9.250;2022-08-21T13:24:13;7.53;;;4.10;;
67272;SDS011;54190;49.770;9.250;2022-08-21T13:26:40;4.70;;;4.10;;
67272;SDS011;54190;49.770;9.250;2022-08-21T13:29:06;5.83;;;3.80;;
67272;SDS011;54190;49.770;9.250;2022-08-21T13:31:35;6.97;;;4.20;;
67272;SDS011;54190;49.770;9.250;2022-08-21T13:34:02;4.30;;;3.70;;
67272;SDS011;54190;49.770;9.250;2022-08-21T13:36:31;5.73;;;3.90;;
67272;SDS011;54190;49.770;9.250;2022-08-21T13:39:03;6.20;;;4.10;;
67272;SDS011;54190;49.770;9.250;2022-08-21T13:41:32;5.57;;;4.17;;
67272;SDS011;54190;49.770;9.250;2022-08-21T13:46:42;5.93;;;4.10;;
67272;SDS011;54190;49.770;9.250;2022-08-21T13:49:09;7.37;;;4.53;;
67272;SDS011;54190;49.770;9.250;2022-08-21T13:51:37;6.33;;;4.20;;
67272;SDS011;54190;49.770;9.250;2022-08-21T13:54:25;5.30;;;4.00;;
67272;SDS011;54190;49.770;9.250;2022-08-21T13:56:59;7.20;;;4.10;;
67272;SDS011;54190;49.770;9.250;2022-08-21T13:59:26;4.30;;;3.90;;
67272;SDS011;54190;49.770;9.250;2022-08-21T14:01:55;4.80;;;4.00;;
67272;SDS011;54190;49.770;9.250;2022-08-21T14:07:02;5.20;;;4.10;;
67272;SDS011;54190;49.770;9.250;2022-08-21T14:09:40;6.60;;;4.17;;
67272;SDS011;54190;49.770;9.250;2022-08-21T14:12:16;6.77;;;4.10;;
67272;SDS011;54190;49.770;9.250;2022-08-21T14:14:49;4.47;;;3.50;;
67272;SDS011;54190;49.770;9.250;2022-08-21T14:17:26;5.97;;;4.03;;
67272;SDS011;54190;49.770;9.250;2022-08-21T14:20:00;3.93;;;3.50;;
67272;SDS011;54190;49.770;9.250;2022-08-21T14:25:40;6.07;;;3.73;;
67272;SDS011;54190;49.770;9.250;2022-08-21T14:27:53;8.13;;;3.80;;
67272;SDS011;54190;49.770;9.250;2022-08-21T14:30:21;6.83;;;3.53;;
67272;SDS011;54190;49.770;9.250;2022-08-21T14:32:55;5.83;;;3.43;;
67272;SDS011;54190;49.770;9.250;2022-08-21T14:35:21;4.70;;;3.33;;
67272;SDS011;54190;49.770;9.250;2022-08-21T14:37:47;4.87;;;3.90;;
67272;SDS011;54190;49.770;9.250;2022-08-21T14:40:18;4.60;;;3.43;;
67272;SDS011;54190;49.770;9.250;2022-08-21T14:42:45;4.70;;;3.70;;
67272;SDS011;54190;49.770;9.250;2022-08-21T14:45:15;4.83;;;3.70;;
67272;SDS011;54190;49.770;9.250;2022-08-21T14:47:51;7.50;;;4.10;;
67272;SDS011;54190;49.770;9.250;2022-08-21T14:50:18;6.27;;;3.90;;
67272;SDS011;54190;49.770;9.250;2022-08-21T14:52:44;4.73;;;3.67;;
67272;SDS011;54190;49.770;9.250;2022-08-21T14:55:10;5.77;;;3.43;;
67272;SDS011;54190;49.770;9.250;2022-08-21T14:57:40;4.90;;;3.60;;
67272;SDS011;54190;49.770;9.250;2022-08-21T15:00:09;6.17;;;3.40;;
67272;SDS011;54190;49.770;9.250;2022-08-21T15:02:37;4.67;;;3.30;;
67272;SDS011;54190;49.770;9.250;2022-08-21T15:05:03;7.07;;;3.60;;
67272;SDS011;54190;49.770;9.250;2022-08-21T15:07:30;5.47;;;3.70;;
67272;SDS011;54190;49.770;9.250;2022-08-21T15:09:56;5.07;;;3.90;;
67272;SDS011;54190;49.770;9.250;2022-08-21T15:12:21;4.50;;;3.33;;
67272;SDS011;54190;49.770;9.250;2022-08-21T15:14:48;3.97;;;3.57;;
67272;SDS011;54190;49.770;9.250;2022-08-21T15:17:14;4.30;;;3.30;;
67272;SDS011;54190;49.770;9.250;2022-08-21T15:19:40;3.47;;;3.17;;
67272;SDS011;54190;49.770;9.250;2022-08-21T15:22:06;5.97;;;3.30;;
67272;SDS011;54190;49.770;9.250;2022-08-21T15:24:32;10.10;;;3.50;;
67272;SDS011;54190;49.770;9.250;2022-08-21T15:26:59;5.00;;;4.33;;
67272;SDS011;54190;49.770;9.250;2022-08-21T15:29:27;5.00;;;3.97;;
67272;SDS011;54190;49.770;9.250;2022-08-21T15:32:03;5.53;;;3.40;;
67272;SDS011;54190;49.770;9.250;2022-08-21T15:34:48;6.40;;;3.57;;
67272;SDS011;54190;49.770;9.250;2022-08-21T15:37:15;4.57;;;3.40;;
67272;SDS011;54190;49.770;9.250;2022-08-21T15:39:41;4.53;;;3.60;;
67272;SDS011;54190;49.770;9.250;2022-08-21T15:42:07;5.23;;;3.70;;
67272;SDS011;54190;49.770;9.250;2022-08-21T15:44:34;4.30;;;3.07;;
67272;SDS011;54190;49.770;9.250;2022-08-21T15:47:00;4.13;;;3.63;;
67272;SDS011;54190;49.770;9.250;2022-08-21T15:49:26;6.90;;;4.10;;
67272;SDS011;54190;49.770;9.250;2022-08-21T15:51:51;5.53;;;3.70;;
67272;SDS011;54190;49.770;9.250;2022-08-21T15:54:17;5.10;;;3.80;;
67272;SDS011;54190;49.770;9.250;2022-08-21T15:56:44;8.00;;;3.40;;
67272;SDS011;54190;49.770;9.250;2022-08-21T15:59:13;5.13;;;2.90;;
67272;SDS011;54190;49.770;9.250;2022-08-21T16:01:41;6.30;;;3.43;;
67272;SDS011;54190;49.770;9.250;2022-08-21T16:04:08;3.43;;;3.10;;
67272;SDS011;54190;49.770;9.250;2022-08-21T16:06:35;5.70;;;3.10;;
67272;SDS011;54190;49.770;9.250;2022-08-21T16:09:00;6.90;;;3.47;;
67272;SDS011;54190;49.770;9.250;2022-08-21T16:11:27;6.10;;;3.30;;
67272;SDS011;54190;49.770;9.250;2022-08-21T16:13:53;4.10;;;3.30;;
67272;SDS011;54190;49.770;9.250;2022-08-21T16:16:20;5.70;;;3.63;;
67272;SDS011;54190;49.770;9.250;2022-08-21T16:18:47;4.40;;;3.00;;
67272;SDS011;54190;49.770;9.250;2022-08-21T16:21:15;4.80;;;3.70;;